createdAt,value
2017-11-14T00:00:22.657Z,7.03
2017-11-14T00:02:50.132Z,11.83
2017-11-14T00:05:18.365Z,11.40
2017-11-14T00:07:46.033Z,7.70
2017-11-14T00:10:13.813Z,5.00
2017-11-14T00:12:41.283Z,10.50
2017-11-14T00:15:09.532Z,14.33
2017-11-14T00:17:37.013Z,11.50
2017-11-14T00:20:05.042Z,5.63
2017-11-14T00:22:34.075Z,11.87
2017-11-14T00:25:02.353Z,5.37
2017-11-14T00:27:30.657Z,8.23
2017-11-14T00:29:58.180Z,7.17
2017-11-14T00:32:25.697Z,4.50
2017-11-14T00:34:53.226Z,9.50
2017-11-14T00:37:20.683Z,8.93
2017-11-14T00:39:48.216Z,8.70
2017-11-14T00:42:16.475Z,5.33
2017-11-14T00:44:45.450Z,13.33
2017-11-14T00:47:12.933Z,10.73
2017-11-14T00:49:40.412Z,9.40
2017-11-14T00:52:08.650Z,12.23
2017-11-14T00:54:36.173Z,17.10
2017-11-14T00:57:03.652Z,4.23
2017-11-14T00:59:31.120Z,9.00
2017-11-14T01:01:58.688Z,11.00
2017-11-14T01:04:26.156Z,16.00
2017-11-14T01:06:54.376Z,9.30
2017-11-14T01:09:21.879Z,10.50
2017-11-14T01:11:49.435Z,4.43
2017-11-14T01:14:16.880Z,7.40
2017-11-14T01:16:46.877Z,15.43
2017-11-14T01:19:14.373Z,8.50
2017-11-14T01:21:41.832Z,8.17
2017-11-14T01:24:10.073Z,15.00
2017-11-14T01:26:37.536Z,8.63
2017-11-14T01:29:04.993Z,5.87
2017-11-14T01:31:32.477Z,6.93
2017-11-14T01:33:59.962Z,6.97
2017-11-14T01:36:27.444Z,7.50
2017-11-14T01:38:55.955Z,11.17
2017-11-14T01:41:23.418Z,3.20
2017-11-14T01:43:50.902Z,5.57
2017-11-14T01:46:19.157Z,7.13
2017-11-14T01:48:47.447Z,10.57
2017-11-14T01:51:15.706Z,5.83
2017-11-14T01:53:43.944Z,2.63
2017-11-14T01:56:11.429Z,3.00
2017-11-14T01:58:39.669Z,4.07
2017-11-14T02:01:07.178Z,4.13
2017-11-14T02:03:34.631Z,1.90
2017-11-14T02:06:02.184Z,2.90
2017-11-14T02:08:30.423Z,6.60
2017-11-14T02:10:57.920Z,5.83
2017-11-14T02:13:26.808Z,4.37
2017-11-14T02:15:54.296Z,3.00
2017-11-14T02:18:22.544Z,6.30
2017-11-14T02:20:50.008Z,5.33
2017-11-14T02:23:18.283Z,4.00
2017-11-14T02:25:46.600Z,7.30
2017-11-14T02:28:14.064Z,3.50
2017-11-14T02:30:41.576Z,5.80
2017-11-14T02:33:09.030Z,3.87
2017-11-14T02:35:37.255Z,1.93
2017-11-14T02:38:04.774Z,2.20
2017-11-14T02:40:33.004Z,3.60
2017-11-14T02:43:00.465Z,4.20
2017-11-14T02:45:27.953Z,3.33
2017-11-14T02:47:56.214Z,4.67
2017-11-14T02:50:25.428Z,4.57
2017-11-14T02:52:53.674Z,4.50
2017-11-14T02:55:21.125Z,4.30
2017-11-14T02:57:48.591Z,5.17
2017-11-14T03:00:16.047Z,6.20
2017-11-14T03:02:43.519Z,3.07
2017-11-14T03:05:10.966Z,6.43
2017-11-14T03:07:39.004Z,4.20
2017-11-14T03:10:07.269Z,6.93
2017-11-14T03:12:34.787Z,6.87
2017-11-14T03:15:03.025Z,6.70
2017-11-14T03:17:30.485Z,9.77
2017-11-14T03:19:57.968Z,7.10
2017-11-14T03:22:25.432Z,6.80
2017-11-14T03:24:53.670Z,11.03
2017-11-14T03:27:21.141Z,5.43
2017-11-14T03:29:48.616Z,6.10
2017-11-14T03:32:16.069Z,5.00
2017-11-14T03:34:43.524Z,3.77
2017-11-14T03:37:12.512Z,3.63
2017-11-14T03:39:42.292Z,4.60
2017-11-14T03:42:09.777Z,4.20
2017-11-14T03:44:37.244Z,3.10
2017-11-14T03:47:05.606Z,4.30
2017-11-14T03:49:33.077Z,4.77
2017-11-14T03:52:01.225Z,11.90
2017-11-14T03:54:28.689Z,7.50
2017-11-14T03:56:56.166Z,10.27
2017-11-14T03:59:23.649Z,13.50
2017-11-14T04:01:51.129Z,3.97
2017-11-14T04:04:18.589Z,5.10
2017-11-14T04:06:46.061Z,8.90
2017-11-14T04:09:13.574Z,8.07
2017-11-14T04:11:41.070Z,6.20
2017-11-14T04:14:08.543Z,14.00
2017-11-14T04:16:36.004Z,10.10
2017-11-14T04:19:03.707Z,12.50
2017-11-14T04:21:31.205Z,7.03
2017-11-14T04:23:58.683Z,6.70
2017-11-14T04:26:26.248Z,8.23
2017-11-14T04:28:53.712Z,10.17
2017-11-14T04:31:21.172Z,4.50
2017-11-14T04:33:48.643Z,12.97
2017-11-14T04:36:16.882Z,5.17
2017-11-14T04:38:44.341Z,4.43
2017-11-14T04:41:11.813Z,6.17
2017-11-14T04:43:39.280Z,4.00
2017-11-14T04:46:07.505Z,10.80
2017-11-14T04:48:34.994Z,6.50
2017-11-14T04:51:02.460Z,10.10
2017-11-14T04:53:30.017Z,12.03
2017-11-14T04:55:58.268Z,7.13
2017-11-14T04:58:25.742Z,8.37
2017-11-14T05:00:53.972Z,10.33
2017-11-14T05:03:21.878Z,7.27
2017-11-14T05:05:50.214Z,12.47
2017-11-14T05:08:17.727Z,4.20
2017-11-14T05:10:45.524Z,7.37
2017-11-14T05:13:13.000Z,6.40
2017-11-14T05:15:40.503Z,9.83
2017-11-14T05:18:07.975Z,5.83
2017-11-14T05:20:36.248Z,6.80
2017-11-14T05:23:04.470Z,9.97
2017-11-14T05:25:31.928Z,11.40
2017-11-14T05:27:59.408Z,12.20
2017-11-14T05:30:26.881Z,5.30
2017-11-14T05:32:55.858Z,16.60
2017-11-14T05:35:23.333Z,11.70
2017-11-14T05:37:50.815Z,10.57
2017-11-14T05:40:19.044Z,15.70
2017-11-14T05:42:47.293Z,9.07
2017-11-14T05:45:14.777Z,6.83
2017-11-14T05:47:42.244Z,14.10
2017-11-14T05:50:11.237Z,11.03
2017-11-14T05:52:38.710Z,8.73
2017-11-14T05:55:07.708Z,7.80
2017-11-14T05:57:36.820Z,6.20
2017-11-14T06:00:04.294Z,10.53
2017-11-14T06:02:31.756Z,3.50
2017-11-14T06:04:59.229Z,11.90
2017-11-14T06:07:26.738Z,9.40
2017-11-14T06:09:54.270Z,7.13
2017-11-14T06:12:22.580Z,8.03
2017-11-14T06:14:50.037Z,15.77
2017-11-14T06:17:17.487Z,9.40
2017-11-14T06:19:45.748Z,8.57
2017-11-14T06:22:13.209Z,10.37
2017-11-14T06:24:41.435Z,15.50
2017-11-14T06:27:08.924Z,4.73
2017-11-14T06:29:36.388Z,12.83
2017-11-14T06:32:03.838Z,6.53
2017-11-14T06:34:31.309Z,12.23
2017-11-14T06:36:59.545Z,16.10
2017-11-14T06:39:27.006Z,8.33
2017-11-14T06:41:54.499Z,8.93
2017-11-14T06:44:22.750Z,9.23
2017-11-14T06:46:50.988Z,15.10
2017-11-14T06:49:18.492Z,11.63
2017-11-14T06:51:46.002Z,13.47
2017-11-14T06:54:13.496Z,8.90
2017-11-14T06:56:41.743Z,9.90
2017-11-14T06:59:09.200Z,11.60
2017-11-14T07:01:37.570Z,7.50
2017-11-14T07:04:05.257Z,12.23
2017-11-14T07:06:32.741Z,11.10
2017-11-14T07:09:00.192Z,6.43
2017-11-14T07:11:28.071Z,12.47
2017-11-14T07:13:56.344Z,16.33
2017-11-14T07:16:24.629Z,11.07
2017-11-14T07:18:52.185Z,11.83
2017-11-14T07:21:20.427Z,14.40
2017-11-14T07:23:47.913Z,17.10
2017-11-14T07:26:16.169Z,13.67
2017-11-14T07:28:43.657Z,12.00
2017-11-14T07:31:11.152Z,16.33
2017-11-14T07:33:38.627Z,6.50
2017-11-14T07:36:06.116Z,10.90
2017-11-14T07:38:34.389Z,13.70
2017-11-14T07:41:02.665Z,14.10
2017-11-14T07:43:30.911Z,14.97
2017-11-14T07:45:58.372Z,12.97
2017-11-14T07:48:25.845Z,13.10
2017-11-14T07:50:53.328Z,16.60
2017-11-14T07:53:21.553Z,12.20
2017-11-14T07:55:49.170Z,19.90
2017-11-14T07:58:16.715Z,10.03
2017-11-14T08:00:44.967Z,11.73
2017-11-14T08:03:13.251Z,11.77
2017-11-14T08:05:40.709Z,16.10
2017-11-14T08:08:08.193Z,10.37
2017-11-14T08:10:35.676Z,14.90
2017-11-14T08:13:04.105Z,16.60
2017-11-14T08:15:32.380Z,9.37
2017-11-14T08:18:00.634Z,20.90
2017-11-14T08:20:28.220Z,20.73
2017-11-14T08:22:56.444Z,11.80
2017-11-14T08:25:23.945Z,17.33
2017-11-14T08:27:51.404Z,14.53
2017-11-14T08:30:19.644Z,20.03
2017-11-14T08:32:47.666Z,14.60
2017-11-14T08:35:15.189Z,13.87
2017-11-14T08:37:42.643Z,13.90
2017-11-14T08:40:10.120Z,22.73
2017-11-14T08:42:37.671Z,15.57
2017-11-14T08:45:05.172Z,16.90
2017-11-14T08:47:32.649Z,12.03
2017-11-14T08:50:00.152Z,14.20
2017-11-14T08:52:28.432Z,8.57
2017-11-14T08:54:56.680Z,20.70
2017-11-14T08:57:24.273Z,13.30
2017-11-14T08:59:52.528Z,14.87
2017-11-14T09:02:20.800Z,11.60
2017-11-14T09:04:48.274Z,13.30
2017-11-14T09:07:16.733Z,17.43
2017-11-14T09:09:45.017Z,14.17
2017-11-14T09:12:13.260Z,10.73
2017-11-14T09:14:40.711Z,11.47
2017-11-14T09:17:08.197Z,14.13
2017-11-14T09:19:35.669Z,15.00
2017-11-14T09:22:03.928Z,15.57
2017-11-14T09:24:32.937Z,13.30
2017-11-14T09:27:01.206Z,15.03
2017-11-14T09:29:28.704Z,16.93
2017-11-14T09:31:56.221Z,8.80
2017-11-14T09:34:23.684Z,13.03
2017-11-14T09:36:51.229Z,14.40
2017-11-14T09:39:18.715Z,12.23
2017-11-14T09:41:46.974Z,15.37
2017-11-14T09:44:15.372Z,15.40
2017-11-14T09:46:42.868Z,17.07
2017-11-14T09:49:10.343Z,15.90
2017-11-14T09:51:37.829Z,14.50
2017-11-14T09:54:06.075Z,9.90
2017-11-14T09:56:33.555Z,7.63
2017-11-14T09:59:01.785Z,15.07
2017-11-14T10:01:29.389Z,11.80
2017-11-14T10:03:57.620Z,9.33
2017-11-14T10:06:25.078Z,9.10
2017-11-14T10:08:52.558Z,14.17
2017-11-14T10:11:20.024Z,6.93
2017-11-14T10:13:47.475Z,11.43
2017-11-14T10:16:14.951Z,11.70
2017-11-14T10:18:42.407Z,15.27
2017-11-14T10:21:10.640Z,15.67
2017-11-14T10:23:38.124Z,12.30
2017-11-14T10:26:05.698Z,13.07
2017-11-14T10:28:33.948Z,12.90
2017-11-14T10:31:01.449Z,14.93
2017-11-14T10:33:29.697Z,13.63
2017-11-14T10:35:57.157Z,12.67
2017-11-14T10:38:25.396Z,17.83
2017-11-14T10:40:52.890Z,8.23
2017-11-14T10:43:20.357Z,15.23
2017-11-14T10:45:48.602Z,14.87
2017-11-14T10:48:16.057Z,10.57
2017-11-14T10:50:43.530Z,13.53
2017-11-14T10:53:11.001Z,17.90
2017-11-14T10:55:39.256Z,17.93
2017-11-14T10:58:06.712Z,8.27
2017-11-14T11:00:39.200Z,9.57
2017-11-14T11:03:07.458Z,16.03
2017-11-14T11:05:34.925Z,8.83
2017-11-14T11:08:02.408Z,12.23
2017-11-14T11:10:29.943Z,9.87
2017-11-14T11:12:57.418Z,10.13
2017-11-14T11:15:25.840Z,11.93
2017-11-14T11:17:53.337Z,14.37
2017-11-14T11:20:20.822Z,11.50
2017-11-14T11:22:48.411Z,23.00
2017-11-14T11:25:16.261Z,16.50
2017-11-14T11:27:43.736Z,13.90
2017-11-14T11:30:11.208Z,18.63
2017-11-14T11:32:38.684Z,8.87
2017-11-14T11:35:06.148Z,10.60
2017-11-14T11:37:33.624Z,18.30
2017-11-14T11:40:01.864Z,9.63
2017-11-14T11:42:29.340Z,14.10
2017-11-14T11:44:57.621Z,12.77
2017-11-14T11:47:27.361Z,11.77
2017-11-14T11:49:54.888Z,14.13
2017-11-14T11:52:23.206Z,21.50
2017-11-14T11:54:50.677Z,15.33
2017-11-14T11:57:18.164Z,15.90
2017-11-14T11:59:45.670Z,13.33
2017-11-14T12:02:13.202Z,12.60
2017-11-14T12:04:41.447Z,12.70
2017-11-14T12:07:08.954Z,12.27
2017-11-14T12:09:36.485Z,14.20
2017-11-14T12:12:04.709Z,13.37
2017-11-14T12:14:32.180Z,17.60
2017-11-14T12:16:59.646Z,30.43
2017-11-14T12:19:27.106Z,12.60
2017-11-14T12:21:54.573Z,15.50
2017-11-14T12:24:22.145Z,25.03
2017-11-14T12:26:49.696Z,13.73
2017-11-14T12:29:17.987Z,21.90
2017-11-14T12:31:45.507Z,13.93
2017-11-14T12:34:12.993Z,11.90
2017-11-14T12:36:41.243Z,9.67
2017-11-14T12:39:10.267Z,15.10
2017-11-14T12:41:38.505Z,22.20
2017-11-14T12:44:05.991Z,21.90
2017-11-14T12:46:33.541Z,13.10
2017-11-14T12:49:01.108Z,21.03
2017-11-14T12:51:28.665Z,15.23
2017-11-14T12:53:56.151Z,17.33
2017-11-14T12:56:23.641Z,12.87
2017-11-14T12:58:51.254Z,16.10
2017-11-14T13:01:19.504Z,12.67
2017-11-14T13:03:47.705Z,20.67
2017-11-14T13:06:15.953Z,20.03
2017-11-14T13:08:43.435Z,19.10
2017-11-14T13:11:11.678Z,18.60
2017-11-14T13:13:39.161Z,18.73
2017-11-14T13:16:07.387Z,16.73
2017-11-14T13:18:34.860Z,16.43
2017-11-14T13:21:02.464Z,18.07
2017-11-14T13:23:30.705Z,17.77
2017-11-14T13:25:58.289Z,18.97
2017-11-14T13:28:26.663Z,18.07
2017-11-14T13:30:54.905Z,18.83
2017-11-14T13:33:22.373Z,22.97
2017-11-14T13:35:49.877Z,17.47
2017-11-14T13:38:17.373Z,15.03
2017-11-14T13:40:44.849Z,24.60
2017-11-14T13:43:12.441Z,24.97
2017-11-14T13:45:39.915Z,23.83
2017-11-14T13:48:07.391Z,19.33
2017-11-14T13:50:34.890Z,18.47
2017-11-14T13:53:03.172Z,16.83
2017-11-14T13:55:31.417Z,35.03
2017-11-14T13:57:58.897Z,19.40
2017-11-14T14:00:26.378Z,34.63
2017-11-14T14:02:54.612Z,18.03
2017-11-14T14:05:22.212Z,23.97
2017-11-14T14:07:49.702Z,21.20
2017-11-14T14:10:17.187Z,23.30
2017-11-14T14:12:44.678Z,19.90
2017-11-14T14:15:12.962Z,23.70
2017-11-14T14:17:40.451Z,27.00
2017-11-14T14:20:07.956Z,22.67
2017-11-14T14:22:36.240Z,24.80
2017-11-14T14:25:04.469Z,24.30
2017-11-14T14:27:31.994Z,17.97
2017-11-14T14:29:59.537Z,21.73
2017-11-14T14:32:27.777Z,27.67
2017-11-14T14:34:56.020Z,26.20
2017-11-14T14:37:23.498Z,26.53
2017-11-14T14:39:50.976Z,20.47
2017-11-14T14:42:18.480Z,27.70
2017-11-14T14:44:45.956Z,23.53
2017-11-14T14:47:13.498Z,21.87
2017-11-14T14:49:41.104Z,25.40
2017-11-14T14:52:09.645Z,23.20
2017-11-14T14:54:38.032Z,20.80
2017-11-14T14:57:06.223Z,26.00
2017-11-14T14:59:33.958Z,35.33
2017-11-14T15:02:01.546Z,25.20
2017-11-14T15:04:29.076Z,23.07
2017-11-14T15:06:56.714Z,21.30
2017-11-14T15:09:24.943Z,21.10
2017-11-14T15:11:52.527Z,17.10
2017-11-14T15:14:20.018Z,20.10
2017-11-14T15:16:47.516Z,28.33
2017-11-14T15:19:15.098Z,24.87
2017-11-14T15:21:43.421Z,25.83
2017-11-14T15:24:10.912Z,23.80
2017-11-14T15:26:38.401Z,24.27
2017-11-14T15:29:07.308Z,27.33
2017-11-14T15:31:34.870Z,22.63
2017-11-14T15:34:02.448Z,23.13
2017-11-14T15:36:29.927Z,24.77
2017-11-14T15:38:57.415Z,20.67
2017-11-14T15:41:25.668Z,19.17
2017-11-14T15:43:53.141Z,21.17
2017-11-14T15:46:22.125Z,23.40
2017-11-14T15:48:51.143Z,27.73
2017-11-14T15:51:19.417Z,17.67
2017-11-14T15:53:47.652Z,28.00
2017-11-14T15:56:15.186Z,19.77
2017-11-14T15:58:42.661Z,17.73
2017-11-14T16:01:10.215Z,29.40
2017-11-14T16:03:37.939Z,27.17
2017-11-14T16:06:05.535Z,23.60
2017-11-14T16:08:33.140Z,21.60
2017-11-14T16:11:01.423Z,31.67
2017-11-14T16:13:29.680Z,23.87
2017-11-14T16:15:57.903Z,33.23
2017-11-14T16:18:26.674Z,26.63
2017-11-14T16:20:54.202Z,31.80
2017-11-14T16:23:21.743Z,27.00
2017-11-14T16:25:49.280Z,30.33
2017-11-14T16:28:16.812Z,27.43
2017-11-14T16:30:44.682Z,38.43
2017-11-14T16:33:12.206Z,41.43
2017-11-14T16:35:39.726Z,34.97
2017-11-14T16:38:07.276Z,33.63
2017-11-14T16:40:34.804Z,38.13
2017-11-14T16:43:02.427Z,35.30
2017-11-14T16:45:30.707Z,38.23
2017-11-14T16:47:58.333Z,36.60
2017-11-14T16:50:26.110Z,26.90
2017-11-14T16:52:55.096Z,29.63
2017-11-14T16:55:23.032Z,26.40
2017-11-14T16:57:50.616Z,29.30
2017-11-14T17:00:18.842Z,28.37
2017-11-14T17:02:47.101Z,25.03
2017-11-14T17:05:14.569Z,27.53
2017-11-14T17:07:42.062Z,25.07
2017-11-14T17:10:09.565Z,23.83
2017-11-14T17:12:37.026Z,24.30
2017-11-14T17:15:05.257Z,27.83
2017-11-14T17:17:32.776Z,32.90
2017-11-14T17:20:00.354Z,21.67
2017-11-14T17:22:28.608Z,21.97
2017-11-14T17:24:56.089Z,24.43
2017-11-14T17:27:24.342Z,30.07
2017-11-14T17:29:52.601Z,23.50
2017-11-14T17:32:20.974Z,28.50
2017-11-14T17:34:48.493Z,30.67
2017-11-14T17:37:15.980Z,36.20
2017-11-14T17:39:43.471Z,28.30
2017-11-14T17:42:10.978Z,36.60
2017-11-14T17:44:38.490Z,31.47
2017-11-14T17:47:06.757Z,33.47
2017-11-14T17:49:35.024Z,25.83
2017-11-14T17:52:02.502Z,27.73
2017-11-14T17:54:30.747Z,31.53
2017-11-14T17:56:58.232Z,35.40
2017-11-14T17:59:26.497Z,29.87
2017-11-14T18:01:54.078Z,27.57
2017-11-14T18:04:22.321Z,30.60
2017-11-14T18:06:49.814Z,33.40
2017-11-14T18:09:18.063Z,27.00
2017-11-14T18:11:45.556Z,26.93
2017-11-14T18:14:13.092Z,22.70
2017-11-14T18:16:42.229Z,23.97
2017-11-14T18:19:09.709Z,27.60
2017-11-14T18:21:37.568Z,25.20
2017-11-14T18:24:05.066Z,27.30
2017-11-14T18:26:34.181Z,24.17
2017-11-14T18:29:01.712Z,32.40
2017-11-14T18:31:29.197Z,30.87
2017-11-14T18:33:56.672Z,31.80
2017-11-14T18:36:24.152Z,29.33
2017-11-14T18:38:51.632Z,30.10
2017-11-14T18:41:19.134Z,35.30
2017-11-14T18:43:46.604Z,28.77
2017-11-14T18:46:14.088Z,32.60
2017-11-14T18:48:41.565Z,31.00
2017-11-14T18:51:09.045Z,25.20
2017-11-14T18:53:36.545Z,32.23
2017-11-14T18:56:04.048Z,25.80
2017-11-14T18:58:32.680Z,33.53
2017-11-14T19:01:00.156Z,35.77
2017-11-14T19:03:27.658Z,33.67
2017-11-14T19:05:55.913Z,32.03
2017-11-14T19:08:23.410Z,31.43
2017-11-14T19:10:50.997Z,29.73
2017-11-14T19:13:18.504Z,35.17
2017-11-14T19:15:46.772Z,36.17
2017-11-14T19:18:15.038Z,45.40
2017-11-14T19:20:43.637Z,37.03
2017-11-14T19:23:11.888Z,39.13
2017-11-14T19:25:40.405Z,35.00
2017-11-14T19:28:07.928Z,34.40
2017-11-14T19:30:35.453Z,43.63
2017-11-14T19:33:02.929Z,40.40
2017-11-14T19:35:31.128Z,32.80
2017-11-14T19:37:58.598Z,53.13
2017-11-14T19:40:26.901Z,37.50
2017-11-14T19:42:54.425Z,34.50
2017-11-14T19:45:22.681Z,45.63
2017-11-14T19:47:50.251Z,32.83
2017-11-14T19:50:17.738Z,38.23
2017-11-14T19:52:45.260Z,47.47
2017-11-14T19:55:13.512Z,42.73
2017-11-14T19:57:40.996Z,38.47
2017-11-14T20:00:08.545Z,45.90
2017-11-14T20:02:36.932Z,38.60
2017-11-14T20:05:04.412Z,37.43
2017-11-14T20:07:32.690Z,38.67
2017-11-14T20:10:00.174Z,46.77
2017-11-14T20:12:27.708Z,42.10
2017-11-14T20:14:56.893Z,37.00
2017-11-14T20:17:25.132Z,40.30
2017-11-14T20:19:52.623Z,36.57
2017-11-14T20:22:20.865Z,39.60
2017-11-14T20:24:48.339Z,43.17
2017-11-14T20:27:16.622Z,40.67
2017-11-14T20:29:44.101Z,38.20
2017-11-14T20:32:12.340Z,46.70
2017-11-14T20:34:39.840Z,41.67
2017-11-14T20:37:08.177Z,37.97
2017-11-14T20:39:36.482Z,67.97
2017-11-14T20:42:04.748Z,57.80
2017-11-14T20:44:33.105Z,51.23
2017-11-14T20:47:00.597Z,49.53
2017-11-14T20:49:28.121Z,54.47
2017-11-14T20:51:56.363Z,54.23
2017-11-14T20:54:25.838Z,64.97
2017-11-14T20:56:53.365Z,65.93
2017-11-14T20:59:21.620Z,63.80
2017-11-14T21:01:49.105Z,56.70
2017-11-14T21:04:17.369Z,60.70
2017-11-14T21:06:44.971Z,54.07
2017-11-14T21:09:12.533Z,65.30
2017-11-14T21:11:40.006Z,75.63
2017-11-14T21:14:07.490Z,76.43
2017-11-14T21:16:35.662Z,63.47
2017-11-14T21:19:03.141Z,73.80
2017-11-14T21:21:30.604Z,91.83
2017-11-14T21:23:58.845Z,68.70
2017-11-14T21:26:26.349Z,62.73
2017-11-14T21:28:55.333Z,67.10
2017-11-14T21:31:23.584Z,74.43
2017-11-14T21:33:51.682Z,67.03
2017-11-14T21:36:19.950Z,93.43
2017-11-14T21:38:48.202Z,78.57
2017-11-14T21:41:16.450Z,73.97
2017-11-14T21:43:43.980Z,71.67
2017-11-14T21:46:11.465Z,78.20
2017-11-14T21:48:38.998Z,87.27
2017-11-14T21:51:06.481Z,82.83
2017-11-14T21:53:35.090Z,69.17
2017-11-14T21:56:02.559Z,60.27
2017-11-14T21:58:30.045Z,79.00
2017-11-14T22:00:57.547Z,67.70
2017-11-14T22:03:25.054Z,76.77
2017-11-14T22:05:52.596Z,63.53
2017-11-14T22:08:20.866Z,97.67
2017-11-14T22:10:48.351Z,96.43
2017-11-14T22:13:15.886Z,92.90
2017-11-14T22:15:43.386Z,83.03
2017-11-14T22:18:10.872Z,87.13
2017-11-14T22:20:38.727Z,82.77
2017-11-14T22:23:07.126Z,75.80
2017-11-14T22:25:35.142Z,84.80
2017-11-14T22:28:02.616Z,85.97
2017-11-14T22:30:30.089Z,97.97
2017-11-14T22:32:57.560Z,69.30
2017-11-14T22:35:25.041Z,70.97
2017-11-14T22:37:53.288Z,93.17
2017-11-14T22:40:20.788Z,101.83
2017-11-14T22:42:49.028Z,79.60
2017-11-14T22:45:16.496Z,80.30
2017-11-14T22:47:43.961Z,81.97
2017-11-14T22:50:12.529Z,79.97
2017-11-14T22:52:40.454Z,83.00
2017-11-14T22:55:07.957Z,84.63
2017-11-14T22:57:35.436Z,69.27
2017-11-14T23:00:03.705Z,75.80
2017-11-14T23:02:31.973Z,83.13
2017-11-14T23:04:59.456Z,101.40
2017-11-14T23:07:27.712Z,65.30
2017-11-14T23:09:55.957Z,76.73
2017-11-14T23:12:23.445Z,80.87
2017-11-14T23:14:51.689Z,88.33
2017-11-14T23:17:19.183Z,83.03
2017-11-14T23:19:47.432Z,78.70
2017-11-14T23:22:14.959Z,60.57
2017-11-14T23:24:42.455Z,78.30
2017-11-14T23:27:09.953Z,64.07
2017-11-14T23:29:37.479Z,66.40
2017-11-14T23:32:04.986Z,80.33
2017-11-14T23:34:32.517Z,93.50
2017-11-14T23:37:00.053Z,70.17
2017-11-14T23:39:27.598Z,80.60
2017-11-14T23:41:55.110Z,72.10
2017-11-14T23:44:23.456Z,88.43
2017-11-14T23:46:51.723Z,85.50
2017-11-14T23:49:19.196Z,82.47
2017-11-14T23:51:47.433Z,80.03
2017-11-14T23:54:14.914Z,72.53
2017-11-14T23:56:43.194Z,94.33
2017-11-14T23:59:11.508Z,94.33
